sensor_id;sensor_type;location;lat;lon;timestamp;pressure;altitude;pressure_sealevel;temperature;humidity
54924;BME280;40825;52.270;20.984;2022-09-12T00:00:14;100098.83;;;13.40;67.51
54924;BME280;40825;52.270;20.984;2022-09-12T00:01:06;100098.83;;;13.33;67.62
54924;BME280;40825;52.270;20.984;2022-09-12T00:01:34;100101.33;;;13.29;67.69
54924;BME280;40825;52.270;20.984;2022-09-12T00:01:56;100102.00;;;13.27;67.71
54924;BME280;40825;52.270;20.984;2022-09-12T00:02:20;100105.02;;;13.29;67.78
54924;BME280;40825;52.270;20.984;2022-09-12T00:02:45;100102.56;;;13.31;67.75
54924;BME280;40825;52.270;20.984;2022-09-12T00:03:17;100096.09;;;13.31;67.86
54924;BME280;40825;52.270;20.984;2022-09-12T00:03:40;100097.81;;;13.32;67.64
54924;BME280;40825;52.270;20.984;2022-09-12T00:04:05;100101.30;;;13.30;67.69
54924;BME280;40825;52.270;20.984;2022-09-12T00:04:26;100097.85;;;13.30;67.69
54924;BME280;40825;52.270;20.984;2022-09-12T00:04:51;100099.58;;;13.32;67.78
54924;BME280;40825;52.270;20.984;2022-09-12T00:05:13;100099.97;;;13.32;67.56
54924;BME280;40825;52.270;20.984;2022-09-12T00:05:44;100100.29;;;13.32;67.65
54924;BME280;40825;52.270;20.984;2022-09-12T00:06:09;100102.11;;;13.30;67.54
54924;BME280;40825;52.270;20.984;2022-09-12T00:06:34;100098.44;;;13.29;67.69
54924;BME280;40825;52.270;20.984;2022-09-12T00:06:56;100097.75;;;13.27;67.64
54924;BME280;40825;52.270;20.984;2022-09-12T00:07:17;100102.14;;;13.32;67.62
54924;BME280;40825;52.270;20.984;2022-09-12T00:07:39;100100.25;;;13.32;67.51
54924;BME280;40825;52.270;20.984;2022-09-12T00:08:03;100098.14;;;13.31;67.48
54924;BME280;40825;52.270;20.984;2022-09-12T00:08:25;100098.33;;;13.28;67.48
54924;BME280;40825;52.270;20.984;2022-09-12T00:08:47;100102.66;;;13.28;67.43
54924;BME280;40825;52.270;20.984;2022-09-12T00:09:12;100099.77;;;13.27;67.45
54924;BME280;40825;52.270;20.984;2022-09-12T00:09:37;100100.66;;;13.24;67.62
54924;BME280;40825;52.270;20.984;2022-09-12T00:09:59;100103.19;;;13.23;67.54
54924;BME280;40825;52.270;20.984;2022-09-12T00:10:21;100100.14;;;13.23;67.66
54924;BME280;40825;52.270;20.984;2022-09-12T00:10:42;100100.86;;;13.24;67.62
54924;BME280;40825;52.270;20.984;2022-09-12T00:11:07;100103.17;;;13.24;67.66
54924;BME280;40825;52.270;20.984;2022-09-12T00:11:29;100100.48;;;13.27;67.71
54924;BME280;40825;52.270;20.984;2022-09-12T00:11:54;100100.74;;;13.24;67.64
54924;BME280;40825;52.270;20.984;2022-09-12T00:12:15;100105.36;;;13.22;67.69
54924;BME280;40825;52.270;20.984;2022-09-12T00:12:37;100100.69;;;13.19;67.83
54924;BME280;40825;52.270;20.984;2022-09-12T00:12:58;100106.92;;;13.20;67.82
54924;BME280;40825;52.270;20.984;2022-09-12T00:13:20;100105.84;;;13.20;67.87
54924;BME280;40825;52.270;20.984;2022-09-12T00:13:42;100100.98;;;13.21;67.91
54924;BME280;40825;52.270;20.984;2022-09-12T00:14:05;100094.13;;;13.21;67.97
54924;BME280;40825;52.270;20.984;2022-09-12T00:14:27;100099.15;;;13.23;68.01
54924;BME280;40825;52.270;20.984;2022-09-12T00:14:48;100098.16;;;13.28;68.07
54924;BME280;40825;52.270;20.984;2022-09-12T00:15:11;100096.27;;;13.33;67.87
54924;BME280;40825;52.270;20.984;2022-09-12T00:15:40;100094.05;;;13.26;67.86
54924;BME280;40825;52.270;20.984;2022-09-12T00:16:03;100093.38;;;13.18;67.98
54924;BME280;40825;52.270;20.984;2022-09-12T00:16:30;100100.98;;;13.13;68.01
54924;BME280;40825;52.270;20.984;2022-09-12T00:16:56;100099.67;;;13.09;68.11
54924;BME280;40825;52.270;20.984;2022-09-12T00:17:19;100100.88;;;13.09;68.29
54924;BME280;40825;52.270;20.984;2022-09-12T00:17:41;100095.03;;;13.08;68.34
54924;BME280;40825;52.270;20.984;2022-09-12T00:18:02;100093.79;;;13.08;68.48
54924;BME280;40825;52.270;20.984;2022-09-12T00:18:24;100096.50;;;13.11;68.41
54924;BME280;40825;52.270;20.984;2022-09-12T00:18:45;100100.66;;;13.11;68.41
54924;BME280;40825;52.270;20.984;2022-09-12T00:19:08;100096.73;;;13.11;68.35
54924;BME280;40825;52.270;20.984;2022-09-12T00:19:30;100099.34;;;13.12;68.42
54924;BME280;40825;52.270;20.984;2022-09-12T00:19:52;100098.21;;;13.13;68.45
54924;BME280;40825;52.270;20.984;2022-09-12T00:20:16;100098.36;;;13.15;68.46
54924;BME280;40825;52.270;20.984;2022-09-12T00:20:45;100101.94;;;13.16;68.41
54924;BME280;40825;52.270;20.984;2022-09-12T00:21:07;100096.52;;;13.15;68.43
54924;BME280;40825;52.270;20.984;2022-09-12T00:21:31;100098.79;;;13.14;68.42
54924;BME280;40825;52.270;20.984;2022-09-12T00:21:54;100098.18;;;13.14;68.43
54924;BME280;40825;52.270;20.984;2022-09-12T00:22:16;100098.23;;;13.15;68.46
54924;BME280;40825;52.270;20.984;2022-09-12T00:22:37;100097.23;;;13.14;68.55
54924;BME280;40825;52.270;20.984;2022-09-12T00:22:59;100097.64;;;13.17;68.54
54924;BME280;40825;52.270;20.984;2022-09-12T00:23:21;100098.52;;;13.20;68.45
54924;BME280;40825;52.270;20.984;2022-09-12T00:23:46;100096.60;;;13.21;68.31
54924;BME280;40825;52.270;20.984;2022-09-12T00:24:09;100098.15;;;13.18;68.31
54924;BME280;40825;52.270;20.984;2022-09-12T00:24:31;100098.68;;;13.16;68.26
54924;BME280;40825;52.270;20.984;2022-09-12T00:24:54;100101.38;;;13.15;68.39
54924;BME280;40825;52.270;20.984;2022-09-12T00:25:16;100097.30;;;13.15;68.47
54924;BME280;40825;52.270;20.984;2022-09-12T00:25:44;100099.95;;;13.16;68.47
54924;BME280;40825;52.270;20.984;2022-09-12T00:26:06;100101.08;;;13.17;68.39
54924;BME280;40825;52.270;20.984;2022-09-12T00:26:28;100098.20;;;13.16;68.54
54924;BME280;40825;52.270;20.984;2022-09-12T00:26:52;100098.65;;;13.15;68.57
54924;BME280;40825;52.270;20.984;2022-09-12T00:27:16;100100.10;;;13.15;68.49
54924;BME280;40825;52.270;20.984;2022-09-12T00:27:40;100097.52;;;13.14;68.43
54924;BME280;40825;52.270;20.984;2022-09-12T00:28:02;100097.64;;;13.13;68.46
54924;BME280;40825;52.270;20.984;2022-09-12T00:28:28;100094.86;;;13.12;68.55
54924;BME280;40825;52.270;20.984;2022-09-12T00:28:53;100094.59;;;13.13;68.67
54924;BME280;40825;52.270;20.984;2022-09-12T00:29:22;100095.71;;;13.10;68.51
54924;BME280;40825;52.270;20.984;2022-09-12T00:30:02;100091.54;;;13.05;68.54
54924;BME280;40825;52.270;20.984;2022-09-12T00:30:27;100093.81;;;13.03;68.87
54924;BME280;40825;52.270;20.984;2022-09-12T00:30:48;100099.71;;;13.03;68.81
54924;BME280;40825;52.270;20.984;2022-09-12T00:31:13;100097.95;;;13.04;68.92
54924;BME280;40825;52.270;20.984;2022-09-12T00:31:38;100100.83;;;13.05;68.95
54924;BME280;40825;52.270;20.984;2022-09-12T00:32:02;100097.23;;;13.05;69.02
54924;BME280;40825;52.270;20.984;2022-09-12T00:32:24;100100.60;;;13.06;69.04
54924;BME280;40825;52.270;20.984;2022-09-12T00:32:46;100098.95;;;13.08;69.03
54924;BME280;40825;52.270;20.984;2022-09-12T00:33:12;100100.45;;;13.12;68.88
54924;BME280;40825;52.270;20.984;2022-09-12T00:33:35;100099.59;;;13.11;68.90
54924;BME280;40825;52.270;20.984;2022-09-12T00:33:59;100099.34;;;13.12;68.79
54924;BME280;40825;52.270;20.984;2022-09-12T00:34:21;100098.04;;;13.12;68.71
54924;BME280;40825;52.270;20.984;2022-09-12T00:34:43;100096.70;;;13.13;68.82
54924;BME280;40825;52.270;20.984;2022-09-12T00:35:05;100098.28;;;13.14;68.74
54924;BME280;40825;52.270;20.984;2022-09-12T00:35:27;100097.12;;;13.16;68.73
54924;BME280;40825;52.270;20.984;2022-09-12T00:35:50;100095.46;;;13.18;68.76
54924;BME280;40825;52.270;20.984;2022-09-12T00:36:20;100088.33;;;13.18;68.68
54924;BME280;40825;52.270;20.984;2022-09-12T00:36:42;100090.60;;;13.17;68.64
54924;BME280;40825;52.270;20.984;2022-09-12T00:37:04;100091.23;;;13.16;68.66
54924;BME280;40825;52.270;20.984;2022-09-12T00:37:29;100094.52;;;13.17;68.62
54924;BME280;40825;52.270;20.984;2022-09-12T00:37:51;100096.14;;;13.17;68.64
54924;BME280;40825;52.270;20.984;2022-09-12T00:38:13;100095.58;;;13.18;68.71
54924;BME280;40825;52.270;20.984;2022-09-12T00:38:39;100095.33;;;13.19;68.71
54924;BME280;40825;52.270;20.984;2022-09-12T00:39:03;100100.69;;;13.19;68.65
54924;BME280;40825;52.270;20.984;2022-09-12T00:39:24;100098.88;;;13.19;68.82
54924;BME280;40825;52.270;20.984;2022-09-12T00:39:46;100099.52;;;13.19;68.68
54924;BME280;40825;52.270;20.984;2022-09-12T00:40:08;100098.79;;;13.21;68.67
54924;BME280;40825;52.270;20.984;2022-09-12T00:40:30;100099.45;;;13.21;68.65
54924;BME280;40825;52.270;20.984;2022-09-12T00:40:51;100097.63;;;13.22;68.67
54924;BME280;40825;52.270;20.984;2022-09-12T00:41:19;100096.75;;;13.23;68.70
54924;BME280;40825;52.270;20.984;2022-09-12T00:41:44;100096.80;;;13.23;68.69
54924;BME280;40825;52.270;20.984;2022-09-12T00:42:08;100096.73;;;13.20;68.76
54924;BME280;40825;52.270;20.984;2022-09-12T00:42:30;100097.72;;;13.21;68.81
54924;BME280;40825;52.270;20.984;2022-09-12T00:42:52;100093.25;;;13.22;68.78
54924;BME280;40825;52.270;20.984;2022-09-12T00:44:38;100092.13;;;13.24;68.73
54924;BME280;40825;52.270;20.984;2022-09-12T00:44:46;100093.64;;;13.12;68.72
54924;BME280;40825;52.270;20.984;2022-09-12T00:45:19;100091.31;;;13.08;68.82
54924;BME280;40825;52.270;20.984;2022-09-12T00:45:43;100090.64;;;13.04;68.83
54924;BME280;40825;52.270;20.984;2022-09-12T00:47:32;100096.20;;;12.97;69.10
54924;BME280;40825;52.270;20.984;2022-09-12T00:48:00;100097.19;;;12.98;69.16
54924;BME280;40825;52.270;20.984;2022-09-12T00:48:31;100097.70;;;13.01;69.26
54924;BME280;40825;52.270;20.984;2022-09-12T00:49:30;100093.51;;;13.00;69.09
54924;BME280;40825;52.270;20.984;2022-09-12T00:50:26;100096.36;;;12.92;69.24
54924;BME280;40825;52.270;20.984;2022-09-12T00:50:51;100095.53;;;12.82;69.31
54924;BME280;40825;52.270;20.984;2022-09-12T00:51:15;100096.05;;;12.80;69.47
54924;BME280;40825;52.270;20.984;2022-09-12T00:51:40;100102.91;;;12.83;69.48
54924;BME280;40825;52.270;20.984;2022-09-12T00:52:09;100107.58;;;12.85;69.52
54924;BME280;40825;52.270;20.984;2022-09-12T00:52:36;100104.11;;;12.80;69.40
54924;BME280;40825;52.270;20.984;2022-09-12T00:53:03;100101.67;;;12.73;69.59
54924;BME280;40825;52.270;20.984;2022-09-12T00:53:27;100101.53;;;12.66;69.62
54924;BME280;40825;52.270;20.984;2022-09-12T00:53:49;100105.35;;;12.61;69.63
54924;BME280;40825;52.270;20.984;2022-09-12T00:54:14;100103.48;;;12.56;70.19
54924;BME280;40825;52.270;20.984;2022-09-12T00:54:43;100104.60;;;12.51;69.90
54924;BME280;40825;52.270;20.984;2022-09-12T00:55:09;100105.97;;;12.48;69.84
54924;BME280;40825;52.270;20.984;2022-09-12T00:55:38;100106.02;;;12.44;70.32
54924;BME280;40825;52.270;20.984;2022-09-12T00:56:01;100105.27;;;12.40;70.33
54924;BME280;40825;52.270;20.984;2022-09-12T00:56:23;100107.52;;;12.37;69.96
54924;BME280;40825;52.270;20.984;2022-09-12T00:56:45;100106.91;;;12.34;70.38
54924;BME280;40825;52.270;20.984;2022-09-12T00:57:13;100103.05;;;12.32;69.97
54924;BME280;40825;52.270;20.984;2022-09-12T00:57:48;100109.44;;;12.29;70.64
54924;BME280;40825;52.270;20.984;2022-09-12T00:58:19;100109.11;;;12.24;70.23
54924;BME280;40825;52.270;20.984;2022-09-12T00:58:47;100111.71;;;12.21;69.87
54924;BME280;40825;52.270;20.984;2022-09-12T00:59:18;100110.37;;;12.17;69.88
54924;BME280;40825;52.270;20.984;2022-09-12T00:59:45;100108.17;;;12.13;70.97
54924;BME280;40825;52.270;20.984;2022-09-12T01:00:12;100107.33;;;12.09;70.34
54924;BME280;40825;52.270;20.984;2022-09-12T01:00:37;100113.23;;;12.07;70.67
54924;BME280;40825;52.270;20.984;2022-09-12T01:00:58;100106.73;;;12.06;69.91
54924;BME280;40825;52.270;20.984;2022-09-12T01:01:23;100112.16;;;12.07;70.84
54924;BME280;40825;52.270;20.984;2022-09-12T01:01:55;100108.38;;;12.02;70.76
54924;BME280;40825;52.270;20.984;2022-09-12T01:02:19;100109.42;;;11.98;70.96
54924;BME280;40825;52.270;20.984;2022-09-12T01:02:52;100105.34;;;11.94;70.51
54924;BME280;40825;52.270;20.984;2022-09-12T01:03:16;100107.25;;;11.90;70.42
54924;BME280;40825;52.270;20.984;2022-09-12T01:03:38;100109.92;;;11.88;70.53
54924;BME280;40825;52.270;20.984;2022-09-12T01:04:03;100108.20;;;11.86;70.37
54924;BME280;40825;52.270;20.984;2022-09-12T01:04:25;100110.54;;;11.84;70.05
54924;BME280;40825;52.270;20.984;2022-09-12T01:04:47;100107.54;;;11.82;70.26
54924;BME280;40825;52.270;20.984;2022-09-12T01:05:10;100109.92;;;11.80;71.03
54924;BME280;40825;52.270;20.984;2022-09-12T01:05:33;100112.84;;;11.79;71.35
54924;BME280;40825;52.270;20.984;2022-09-12T01:05:58;100110.16;;;11.77;70.41
54924;BME280;40825;52.270;20.984;2022-09-12T01:06:23;100110.01;;;11.76;70.52
54924;BME280;40825;52.270;20.984;2022-09-12T01:06:46;100109.31;;;11.75;70.80
54924;BME280;40825;52.270;20.984;2022-09-12T01:07:08;100109.02;;;11.74;70.03
54924;BME280;40825;52.270;20.984;2022-09-12T01:07:33;100112.89;;;11.73;70.15
54924;BME280;40825;52.270;20.984;2022-09-12T01:07:59;100112.07;;;11.72;71.31
54924;BME280;40825;52.270;20.984;2022-09-12T01:08:24;100114.70;;;11.70;70.80
54924;BME280;40825;52.270;20.984;2022-09-12T01:08:48;100116.10;;;11.68;70.83
54924;BME280;40825;52.270;20.984;2022-09-12T01:09:16;100116.30;;;11.67;70.28
54924;BME280;40825;52.270;20.984;2022-09-12T01:09:43;100117.33;;;11.66;70.58
54924;BME280;40825;52.270;20.984;2022-09-12T01:10:12;100114.25;;;11.65;70.08
54924;BME280;40825;52.270;20.984;2022-09-12T01:10:39;100116.95;;;11.64;70.73
54924;BME280;40825;52.270;20.984;2022-09-12T01:11:01;100118.73;;;11.62;71.09
54924;BME280;40825;52.270;20.984;2022-09-12T01:11:23;100118.48;;;11.62;70.52
54924;BME280;40825;52.270;20.984;2022-09-12T01:11:45;100115.60;;;11.61;70.43
54924;BME280;40825;52.270;20.984;2022-09-12T01:12:09;100117.98;;;11.60;70.19
54924;BME280;40825;52.270;20.984;2022-09-12T01:12:34;100118.35;;;11.59;71.07
54924;BME280;40825;52.270;20.984;2022-09-12T01:13:02;100117.23;;;11.58;70.98
54924;BME280;40825;52.270;20.984;2022-09-12T01:13:32;100110.46;;;11.58;70.74
54924;BME280;40825;52.270;20.984;2022-09-12T01:13:57;100116.48;;;11.56;71.37
54924;BME280;40825;52.270;20.984;2022-09-12T01:14:23;100115.67;;;11.56;70.68
54924;BME280;40825;52.270;20.984;2022-09-12T01:14:44;100113.73;;;11.53;71.14
54924;BME280;40825;52.270;20.984;2022-09-12T01:15:06;100120.73;;;11.51;72.08
54924;BME280;40825;52.270;20.984;2022-09-12T01:15:31;100123.16;;;11.49;71.30
54924;BME280;40825;52.270;20.984;2022-09-12T01:15:53;100126.98;;;11.49;70.77
54924;BME280;40825;52.270;20.984;2022-09-12T01:16:17;100117.80;;;11.47;70.79
54924;BME280;40825;52.270;20.984;2022-09-12T01:16:41;100124.99;;;11.46;71.19
54924;BME280;40825;52.270;20.984;2022-09-12T01:17:08;100124.59;;;11.44;71.76
54924;BME280;40825;52.270;20.984;2022-09-12T01:19:15;100124.78;;;11.39;70.94
54924;BME280;40825;52.270;20.984;2022-09-12T01:20:04;100124.25;;;11.38;70.81
54924;BME280;40825;52.270;20.984;2022-09-12T01:21:10;100125.81;;;11.35;70.82
54924;BME280;40825;52.270;20.984;2022-09-12T01:21:53;100125.65;;;11.33;70.97
54924;BME280;40825;52.270;20.984;2022-09-12T01:24:45;100127.11;;;11.31;70.98
54924;BME280;40825;52.270;20.984;2022-09-12T01:25:30;100124.11;;;11.30;71.96
54924;BME280;40825;52.270;20.984;2022-09-12T01:26:31;100127.27;;;11.26;72.59
54924;BME280;40825;52.270;20.984;2022-09-12T01:28:08;100123.45;;;11.24;71.92
54924;BME280;40825;52.270;20.984;2022-09-12T01:29:19;100127.59;;;11.23;71.47
54924;BME280;40825;52.270;20.984;2022-09-12T01:30:06;100125.08;;;11.21;72.09
54924;BME280;40825;52.270;20.984;2022-09-12T01:30:43;100122.29;;;11.20;71.49
54924;BME280;40825;52.270;20.984;2022-09-12T01:31:16;100128.41;;;11.21;71.89
54924;BME280;40825;52.270;20.984;2022-09-12T01:31:44;100122.27;;;11.20;73.60
54924;BME280;40825;52.270;20.984;2022-09-12T01:33:33;100123.35;;;11.19;71.88
54924;BME280;40825;52.270;20.984;2022-09-12T01:34:28;100125.24;;;11.18;72.05
54924;BME280;40825;52.270;20.984;2022-09-12T01:36:42;100127.25;;;11.18;71.85
54924;BME280;40825;52.270;20.984;2022-09-12T01:37:14;100125.23;;;11.17;71.79
54924;BME280;40825;52.270;20.984;2022-09-12T01:38:38;100128.77;;;11.16;72.39
54924;BME280;40825;52.270;20.984;2022-09-12T01:39:04;100129.54;;;11.15;71.75
54924;BME280;40825;52.270;20.984;2022-09-12T01:39:34;100127.27;;;11.15;71.71
54924;BME280;40825;52.270;20.984;2022-09-12T01:40:05;100129.30;;;11.14;72.68
54924;BME280;40825;52.270;20.984;2022-09-12T01:40:39;100126.33;;;11.13;71.87
54924;BME280;40825;52.270;20.984;2022-09-12T01:42:03;100126.58;;;11.12;71.62
54924;BME280;40825;52.270;20.984;2022-09-12T01:42:33;100124.02;;;11.11;72.42
54924;BME280;40825;52.270;20.984;2022-09-12T01:43:00;100127.23;;;11.11;72.38
54924;BME280;40825;52.270;20.984;2022-09-12T01:43:35;100127.68;;;11.10;72.11
54924;BME280;40825;52.270;20.984;2022-09-12T01:44:54;100129.20;;;11.10;71.88
54924;BME280;40825;52.270;20.984;2022-09-12T01:45:22;100128.88;;;11.09;72.93
54924;BME280;40825;52.270;20.984;2022-09-12T01:46:43;100128.59;;;11.10;72.33
54924;BME280;40825;52.270;20.984;2022-09-12T01:47:11;100133.67;;;11.09;72.80
54924;BME280;40825;52.270;20.984;2022-09-12T01:48:04;100136.64;;;11.09;73.07
54924;BME280;40825;52.270;20.984;2022-09-12T01:48:30;100130.52;;;11.08;72.82
54924;BME280;40825;52.270;20.984;2022-09-12T01:48:58;100134.00;;;11.06;72.84
54924;BME280;40825;52.270;20.984;2022-09-12T01:49:26;100132.80;;;11.05;72.66
54924;BME280;40825;52.270;20.984;2022-09-12T01:50:10;100132.18;;;11.05;72.51
54924;BME280;40825;52.270;20.984;2022-09-12T01:50:38;100132.59;;;11.04;72.27
54924;BME280;40825;52.270;20.984;2022-09-12T01:51:19;100134.89;;;11.04;73.04
54924;BME280;40825;52.270;20.984;2022-09-12T01:51:47;100131.40;;;11.04;73.03
54924;BME280;40825;52.270;20.984;2022-09-12T01:52:19;100134.07;;;11.04;72.32
54924;BME280;40825;52.270;20.984;2022-09-12T01:53:10;100134.35;;;11.03;74.03
54924;BME280;40825;52.270;20.984;2022-09-12T01:53:34;100137.52;;;11.03;73.22
54924;BME280;40825;52.270;20.984;2022-09-12T01:54:12;100138.05;;;11.03;73.84
54924;BME280;40825;52.270;20.984;2022-09-12T01:54:41;100136.61;;;11.03;72.39
54924;BME280;40825;52.270;20.984;2022-09-12T01:55:09;100138.95;;;11.03;72.95
54924;BME280;40825;52.270;20.984;2022-09-12T01:55:41;100138.09;;;11.03;73.40
54924;BME280;40825;52.270;20.984;2022-09-12T01:56:12;100137.31;;;11.02;73.52
54924;BME280;40825;52.270;20.984;2022-09-12T01:56:36;100136.00;;;11.01;73.27
54924;BME280;40825;52.270;20.984;2022-09-12T01:57:00;100136.70;;;11.01;72.76
54924;BME280;40825;52.270;20.984;2022-09-12T01:57:38;100131.81;;;11.02;73.03
54924;BME280;40825;52.270;20.984;2022-09-12T01:58:25;100136.09;;;11.00;73.01
54924;BME280;40825;52.270;20.984;2022-09-12T01:58:57;100136.54;;;11.00;72.60
54924;BME280;40825;52.270;20.984;2022-09-12T01:59:26;100136.65;;;10.99;72.38
54924;BME280;40825;52.270;20.984;2022-09-12T01:59:51;100140.79;;;10.98;72.56
54924;BME280;40825;52.270;20.984;2022-09-12T02:00:22;100142.89;;;10.99;72.70
54924;BME280;40825;52.270;20.984;2022-09-12T02:01:26;100138.79;;;10.99;72.24
54924;BME280;40825;52.270;20.984;2022-09-12T02:01:52;100139.88;;;10.98;72.43
54924;BME280;40825;52.270;20.984;2022-09-12T02:02:20;100135.04;;;10.99;72.71
54924;BME280;40825;52.270;20.984;2022-09-12T02:02:47;100141.48;;;10.98;72.58
54924;BME280;40825;52.270;20.984;2022-09-12T02:03:15;100137.06;;;10.98;73.16
54924;BME280;40825;52.270;20.984;2022-09-12T02:03:43;100137.52;;;10.99;72.50
54924;BME280;40825;52.270;20.984;2022-09-12T02:05:00;100140.31;;;10.99;72.85
54924;BME280;40825;52.270;20.984;2022-09-12T02:05:26;100138.34;;;10.99;72.65
54924;BME280;40825;52.270;20.984;2022-09-12T02:05:52;100138.71;;;10.99;72.27
54924;BME280;40825;52.270;20.984;2022-09-12T02:06:30;100139.20;;;11.00;72.63
54924;BME280;40825;52.270;20.984;2022-09-12T02:07:17;100132.00;;;10.99;72.41
54924;BME280;40825;52.270;20.984;2022-09-12T02:07:42;100135.04;;;10.99;72.79
54924;BME280;40825;52.270;20.984;2022-09-12T02:08:27;100133.57;;;10.99;72.57
54924;BME280;40825;52.270;20.984;2022-09-12T02:08:53;100132.75;;;11.00;73.65
54924;BME280;40825;52.270;20.984;2022-09-12T02:09:23;100133.63;;;11.00;72.73
54924;BME280;40825;52.270;20.984;2022-09-12T02:10:04;100135.10;;;11.00;72.65
54924;BME280;40825;52.270;20.984;2022-09-12T02:10:32;100131.80;;;10.99;72.75
54924;BME280;40825;52.270;20.984;2022-09-12T02:10:55;100128.92;;;10.99;72.98
54924;BME280;40825;52.270;20.984;2022-09-12T02:11:18;100130.04;;;10.99;73.07
54924;BME280;40825;52.270;20.984;2022-09-12T02:11:41;100133.11;;;10.98;72.67
54924;BME280;40825;52.270;20.984;2022-09-12T02:12:06;100136.52;;;10.98;72.69
54924;BME280;40825;52.270;20.984;2022-09-12T02:12:40;100136.15;;;10.98;72.84
54924;BME280;40825;52.270;20.984;2022-09-12T02:13:12;100136.52;;;10.98;72.79
54924;BME280;40825;52.270;20.984;2022-09-12T02:13:46;100136.77;;;10.98;72.98
54924;BME280;40825;52.270;20.984;2022-09-12T02:14:17;100130.35;;;10.98;73.41
54924;BME280;40825;52.270;20.984;2022-09-12T02:14:45;100134.14;;;10.98;74.49
54924;BME280;40825;52.270;20.984;2022-09-12T02:15:09;100130.73;;;10.96;73.48
54924;BME280;40825;52.270;20.984;2022-09-12T02:15:36;100134.09;;;10.96;72.94
54924;BME280;40825;52.270;20.984;2022-09-12T02:16:00;100133.69;;;10.97;72.97
54924;BME280;40825;52.270;20.984;2022-09-12T02:16:31;100135.33;;;10.95;73.06
54924;BME280;40825;52.270;20.984;2022-09-12T02:17:03;100136.76;;;10.95;73.22
54924;BME280;40825;52.270;20.984;2022-09-12T02:17:31;100134.73;;;10.94;73.41
54924;BME280;40825;52.270;20.984;2022-09-12T02:17:56;100132.48;;;10.94;73.23
54924;BME280;40825;52.270;20.984;2022-09-12T02:18:19;100133.30;;;10.94;73.03
54924;BME280;40825;52.270;20.984;2022-09-12T02:18:44;100136.71;;;10.94;73.00
54924;BME280;40825;52.270;20.984;2022-09-12T02:19:08;100136.14;;;10.94;73.31
54924;BME280;40825;52.270;20.984;2022-09-12T02:19:42;100136.80;;;10.95;73.25
54924;BME280;40825;52.270;20.984;2022-09-12T02:20:17;100134.20;;;10.94;72.84
54924;BME280;40825;52.270;20.984;2022-09-12T02:20:40;100134.17;;;10.94;73.14
54924;BME280;40825;52.270;20.984;2022-09-12T02:21:04;100135.89;;;10.94;73.35
54924;BME280;40825;52.270;20.984;2022-09-12T02:21:27;100136.76;;;10.94;73.58
54924;BME280;40825;52.270;20.984;2022-09-12T02:21:54;100135.60;;;10.93;73.49
54924;BME280;40825;52.270;20.984;2022-09-12T02:22:19;100135.64;;;10.93;73.41
54924;BME280;40825;52.270;20.984;2022-09-12T02:22:42;100135.80;;;10.93;73.50
54924;BME280;40825;52.270;20.984;2022-09-12T02:23:07;100133.88;;;10.93;73.66
54924;BME280;40825;52.270;20.984;2022-09-12T02:23:32;100136.58;;;10.94;74.31
54924;BME280;40825;52.270;20.984;2022-09-12T02:24:00;100134.05;;;10.95;74.64
54924;BME280;40825;52.270;20.984;2022-09-12T02:24:24;100133.09;;;10.95;73.79
54924;BME280;40825;52.270;20.984;2022-09-12T02:24:50;100131.45;;;10.93;73.66
54924;BME280;40825;52.270;20.984;2022-09-12T02:25:34;100138.27;;;10.93;74.35
54924;BME280;40825;52.270;20.984;2022-09-12T02:25:59;100135.88;;;10.91;73.92
54924;BME280;40825;52.270;20.984;2022-09-12T02:26:35;100136.86;;;10.90;73.87
54924;BME280;40825;52.270;20.984;2022-09-12T02:27:22;100135.91;;;10.91;74.15
54924;BME280;40825;52.270;20.984;2022-09-12T02:27:46;100132.58;;;10.90;74.10
54924;BME280;40825;52.270;20.984;2022-09-12T02:28:14;100135.26;;;10.90;73.67
54924;BME280;40825;52.270;20.984;2022-09-12T02:28:46;100135.95;;;10.90;74.28
54924;BME280;40825;52.270;20.984;2022-09-12T02:29:19;100139.69;;;10.90;74.12
54924;BME280;40825;52.270;20.984;2022-09-12T02:29:41;100135.79;;;10.90;73.96
54924;BME280;40825;52.270;20.984;2022-09-12T02:30:08;100136.24;;;10.91;73.54
54924;BME280;40825;52.270;20.984;2022-09-12T02:30:50;100141.21;;;10.91;74.21
54924;BME280;40825;52.270;20.984;2022-09-12T02:31:19;100140.00;;;10.92;73.75
54924;BME280;40825;52.270;20.984;2022-09-12T02:32:29;100142.46;;;10.92;73.74
54924;BME280;40825;52.270;20.984;2022-09-12T02:33:22;100137.62;;;10.93;74.62
54924;BME280;40825;52.270;20.984;2022-09-12T02:33:54;100138.44;;;10.93;74.70
54924;BME280;40825;52.270;20.984;2022-09-12T02:34:31;100142.71;;;10.93;74.07
54924;BME280;40825;52.270;20.984;2022-09-12T02:34:59;100139.05;;;10.94;73.83
54924;BME280;40825;52.270;20.984;2022-09-12T02:35:34;100144.45;;;10.95;73.97
54924;BME280;40825;52.270;20.984;2022-09-12T02:36:07;100137.17;;;10.95;74.62
54924;BME280;40825;52.270;20.984;2022-09-12T02:38:28;100141.80;;;10.95;74.57
54924;BME280;40825;52.270;20.984;2022-09-12T02:38:52;100137.70;;;10.95;75.02
54924;BME280;40825;52.270;20.984;2022-09-12T02:39:16;100143.38;;;10.95;74.16
54924;BME280;40825;52.270;20.984;2022-09-12T02:39:41;100143.41;;;10.95;74.35
54924;BME280;40825;52.270;20.984;2022-09-12T02:40:03;100137.86;;;10.95;74.39
54924;BME280;40825;52.270;20.984;2022-09-12T02:40:28;100140.70;;;10.95;73.98
54924;BME280;40825;52.270;20.984;2022-09-12T02:40:50;100138.28;;;10.96;74.07
54924;BME280;40825;52.270;20.984;2022-09-12T02:41:13;100144.20;;;10.95;74.15